createdAt,value
2016-10-25T00:00:07.915Z,11.44
2016-10-25T00:01:08.117Z,11.49
2016-10-25T00:02:08.737Z,11.59
2016-10-25T00:03:07.578Z,11.61
2016-10-25T00:04:07.764Z,11.63
2016-10-25T00:05:07.939Z,11.59
2016-10-25T00:06:07.723Z,11.52
2016-10-25T00:07:08.219Z,11.60
2016-10-25T00:08:07.762Z,11.33
2016-10-25T00:09:07.638Z,11.24
2016-10-25T00:10:07.383Z,11.42
2016-10-25T00:11:08.001Z,11.49
2016-10-25T00:12:07.656Z,11.51
2016-10-25T00:13:07.297Z,11.64
2016-10-25T00:14:07.909Z,11.66
2016-10-25T00:15:07.605Z,11.63
2016-10-25T00:16:07.671Z,11.54
2016-10-25T00:17:07.614Z,11.39
2016-10-25T00:18:08.285Z,11.33
2016-10-25T00:19:07.939Z,11.43
2016-10-25T00:20:08.022Z,11.37
2016-10-25T00:21:07.371Z,11.43
2016-10-25T00:22:07.968Z,11.37
2016-10-25T00:23:07.544Z,11.42
2016-10-25T00:24:07.193Z,11.46
2016-10-25T00:25:07.819Z,11.52
2016-10-25T00:26:07.477Z,11.55
2016-10-25T00:27:07.859Z,11.47
2016-10-25T00:28:07.435Z,11.42
2016-10-25T00:29:07.991Z,11.45
2016-10-25T00:30:07.428Z,11.48
2016-10-25T00:31:08.682Z,11.61
2016-10-25T00:32:07.407Z,11.57
2016-10-25T00:33:08.096Z,11.44
2016-10-25T00:34:07.683Z,11.36
2016-10-25T00:35:07.603Z,11.48
2016-10-25T00:36:07.194Z,11.53
2016-10-25T00:37:09.151Z,11.40
2016-10-25T00:38:07.351Z,11.34
2016-10-25T00:39:08.221Z,11.33
2016-10-25T00:40:08.591Z,11.39
2016-10-25T00:41:07.403Z,11.52
2016-10-25T00:42:08.081Z,11.52
2016-10-25T00:43:20.239Z,11.44
2016-10-25T00:44:07.788Z,11.59
2016-10-25T00:45:07.399Z,11.58
2016-10-25T00:46:09.503Z,11.54
2016-10-25T00:47:07.079Z,11.52
2016-10-25T00:48:07.808Z,11.44
2016-10-25T00:49:07.579Z,11.31
2016-10-25T00:50:07.296Z,11.30
2016-10-25T00:51:08.039Z,11.41
2016-10-25T00:52:07.777Z,11.55
2016-10-25T00:53:07.635Z,11.57
2016-10-25T00:54:07.198Z,11.56
2016-10-25T00:55:07.865Z,11.67
2016-10-25T00:56:07.558Z,11.49
2016-10-25T00:57:07.720Z,11.51
2016-10-25T00:58:08.276Z,11.51
2016-10-25T00:59:07.424Z,11.45
2016-10-25T01:00:08.081Z,11.28
2016-10-25T01:01:07.757Z,11.21
2016-10-25T01:02:08.297Z,11.41
2016-10-25T01:03:07.469Z,11.56
2016-10-25T01:04:07.394Z,11.50
2016-10-25T01:05:08.045Z,11.57
2016-10-25T01:06:07.612Z,11.53
2016-10-25T01:07:07.294Z,11.60
2016-10-25T01:08:07.974Z,11.67
2016-10-25T01:09:07.547Z,11.56
2016-10-25T01:10:07.952Z,11.62
2016-10-25T01:11:07.386Z,11.48
2016-10-25T01:12:07.197Z,11.44
2016-10-25T01:13:08.265Z,11.55
2016-10-25T01:14:07.511Z,11.60
2016-10-25T01:15:08.074Z,11.60
2016-10-25T01:16:07.751Z,11.48
2016-10-25T01:17:09.619Z,11.43
2016-10-25T01:18:07.270Z,11.26
2016-10-25T01:19:08.583Z,11.28
2016-10-25T01:20:07.322Z,11.37
2016-10-25T01:21:07.844Z,11.28
2016-10-25T01:22:07.698Z,11.50
2016-10-25T01:23:08.007Z,11.67
2016-10-25T01:24:08.336Z,11.73
2016-10-25T01:25:08.066Z,11.85
2016-10-25T01:26:07.845Z,11.84
2016-10-25T01:27:07.635Z,11.84
2016-10-25T01:28:07.378Z,11.88
2016-10-25T01:29:08.453Z,11.85
2016-10-25T01:30:08.101Z,11.87
2016-10-25T01:31:08.625Z,11.92
2016-10-25T01:32:07.371Z,11.99
2016-10-25T01:33:08.051Z,11.97
2016-10-25T01:34:07.689Z,11.99
2016-10-25T01:35:07.459Z,12.07
2016-10-25T01:36:08.117Z,12.09
2016-10-25T01:37:07.872Z,12.01
2016-10-25T01:38:07.501Z,12.03
2016-10-25T01:39:07.720Z,11.96
2016-10-25T01:40:07.433Z,11.98
2016-10-25T01:41:08.224Z,11.93
2016-10-25T01:42:07.849Z,11.84
2016-10-25T01:43:07.456Z,11.96
2016-10-25T01:44:07.706Z,11.92
2016-10-25T01:45:07.423Z,12.00
2016-10-25T01:46:08.171Z,11.92
2016-10-25T01:47:09.437Z,11.90
2016-10-25T01:48:08.058Z,11.84
2016-10-25T01:49:08.036Z,11.96
2016-10-25T01:50:07.663Z,11.99
2016-10-25T01:51:07.558Z,12.06
2016-10-25T01:52:07.232Z,12.08
2016-10-25T01:53:07.954Z,11.93
2016-10-25T01:54:07.620Z,11.93
2016-10-25T01:55:08.172Z,11.93
2016-10-25T01:56:07.483Z,11.83
2016-10-25T01:57:07.979Z,11.90
2016-10-25T01:58:07.897Z,12.03
2016-10-25T01:59:07.528Z,12.09
2016-10-25T02:00:07.194Z,12.12
2016-10-25T02:01:07.805Z,12.07
2016-10-25T02:02:07.464Z,12.15
2016-10-25T02:03:07.808Z,12.10
2016-10-25T02:04:07.356Z,12.10
2016-10-25T02:05:07.847Z,12.18
2016-10-25T02:06:07.539Z,12.17
2016-10-25T02:07:08.214Z,12.22
2016-10-25T02:08:07.921Z,12.22
2016-10-25T02:09:07.858Z,12.29
2016-10-25T02:10:21.940Z,12.26
2016-10-25T02:11:07.530Z,12.26
2016-10-25T02:12:08.157Z,12.35
2016-10-25T02:13:07.670Z,12.35
2016-10-25T02:14:07.180Z,12.33
2016-10-25T02:15:07.713Z,12.40
2016-10-25T02:16:07.480Z,12.35
2016-10-25T02:17:08.321Z,12.37
2016-10-25T02:18:07.934Z,12.38
2016-10-25T02:19:09.009Z,12.45
2016-10-25T02:20:07.690Z,12.44
2016-10-25T02:21:07.520Z,12.46
2016-10-25T02:22:08.176Z,12.51
2016-10-25T02:23:07.651Z,12.54
2016-10-25T02:24:07.196Z,12.52
2016-10-25T02:25:08.067Z,12.50
2016-10-25T02:26:07.646Z,12.50
2016-10-25T02:27:07.075Z,12.51
2016-10-25T02:28:07.665Z,12.48
2016-10-25T02:29:07.438Z,12.55
2016-10-25T02:30:07.899Z,12.62
2016-10-25T02:31:07.702Z,12.62
2016-10-25T02:32:07.514Z,12.67
2016-10-25T02:33:07.666Z,12.82
2016-10-25T02:34:07.200Z,12.72
2016-10-25T02:35:07.783Z,12.76
2016-10-25T02:36:07.256Z,12.71
2016-10-25T02:37:07.938Z,12.83
2016-10-25T02:38:07.530Z,12.83
2016-10-25T02:39:08.210Z,12.78
2016-10-25T02:40:08.317Z,12.91
2016-10-25T02:41:07.614Z,12.84
2016-10-25T02:42:07.273Z,12.80
2016-10-25T02:43:08.471Z,12.83
2016-10-25T02:44:08.233Z,12.88
2016-10-25T02:45:08.170Z,12.82
2016-10-25T02:46:08.545Z,12.88
2016-10-25T02:47:07.155Z,12.90
2016-10-25T02:48:08.821Z,12.82
2016-10-25T02:49:07.446Z,12.80
2016-10-25T02:50:07.966Z,12.85
2016-10-25T02:51:07.597Z,12.79
2016-10-25T02:52:07.130Z,12.82
2016-10-25T02:53:07.753Z,12.92
2016-10-25T02:54:07.338Z,12.93
2016-10-25T02:55:07.900Z,12.91
2016-10-25T02:56:07.477Z,12.87
2016-10-25T02:57:08.052Z,12.89
2016-10-25T02:58:07.697Z,12.93
2016-10-25T02:59:07.282Z,13.00
2016-10-25T03:00:07.869Z,13.01
2016-10-25T03:01:07.459Z,13.03
2016-10-25T03:02:07.964Z,13.07
2016-10-25T03:03:07.633Z,12.86
2016-10-25T03:04:07.225Z,12.92
2016-10-25T03:05:07.835Z,13.01
2016-10-25T03:06:07.338Z,13.00
2016-10-25T03:07:07.938Z,13.02
2016-10-25T03:08:07.673Z,13.02
2016-10-25T03:09:22.389Z,13.02
2016-10-25T03:10:08.028Z,13.01
2016-10-25T03:11:07.614Z,13.02
2016-10-25T03:12:07.309Z,13.03
2016-10-25T03:13:07.838Z,13.05
2016-10-25T03:14:07.417Z,13.04
2016-10-25T03:15:08.098Z,13.11
2016-10-25T03:16:08.271Z,13.11
2016-10-25T03:17:08.027Z,13.07
2016-10-25T03:18:07.661Z,13.10
2016-10-25T03:19:07.236Z,13.11
2016-10-25T03:20:07.799Z,13.11
2016-10-25T03:21:07.438Z,13.09
2016-10-25T03:22:08.015Z,13.06
2016-10-25T03:23:07.622Z,13.13
2016-10-25T03:24:07.230Z,13.09
2016-10-25T03:25:07.758Z,13.11
2016-10-25T03:26:07.450Z,13.08
2016-10-25T03:27:08.034Z,13.10
2016-10-25T03:28:07.764Z,13.15
2016-10-25T03:29:07.445Z,13.16
2016-10-25T03:30:07.921Z,13.20
2016-10-25T03:31:08.164Z,13.18
2016-10-25T03:32:07.779Z,13.20
2016-10-25T03:33:07.861Z,13.14
2016-10-25T03:34:07.483Z,13.15
2016-10-25T03:35:08.104Z,13.15
2016-10-25T03:36:07.672Z,13.11
2016-10-25T03:37:07.230Z,13.05
2016-10-25T03:38:07.786Z,13.16
2016-10-25T03:39:07.342Z,13.17
2016-10-25T03:40:07.941Z,13.14
2016-10-25T03:41:07.530Z,13.13
2016-10-25T03:42:07.973Z,13.06
2016-10-25T03:43:07.708Z,13.02
2016-10-25T03:44:07.404Z,13.13
2016-10-25T03:45:07.985Z,13.09
2016-10-25T03:46:07.746Z,13.07
2016-10-25T03:47:07.335Z,13.11
2016-10-25T03:48:07.897Z,13.12
2016-10-25T03:49:07.556Z,13.17
2016-10-25T03:50:07.194Z,13.14
2016-10-25T03:51:07.769Z,13.15
2016-10-25T03:52:07.299Z,13.09
2016-10-25T03:53:07.974Z,13.09
2016-10-25T03:54:07.554Z,13.17
2016-10-25T03:55:08.094Z,13.20
2016-10-25T03:56:07.662Z,13.21
2016-10-25T03:57:07.266Z,13.22
2016-10-25T03:58:08.020Z,13.21
2016-10-25T03:59:07.735Z,13.21
2016-10-25T04:00:07.400Z,13.20
2016-10-25T04:01:08.006Z,13.14
2016-10-25T04:02:08.068Z,13.15
2016-10-25T04:03:07.673Z,13.17
2016-10-25T04:04:08.115Z,13.16
2016-10-25T04:05:08.003Z,13.21
2016-10-25T04:06:07.871Z,13.20
2016-10-25T04:07:07.568Z,13.24
2016-10-25T04:08:07.135Z,13.21
2016-10-25T04:09:07.666Z,13.16
2016-10-25T04:10:07.264Z,13.21
2016-10-25T04:11:07.752Z,13.19
2016-10-25T04:12:07.377Z,13.22
2016-10-25T04:13:07.932Z,13.24
2016-10-25T04:14:07.934Z,13.23
2016-10-25T04:15:07.589Z,13.22
2016-10-25T04:16:07.261Z,13.24
2016-10-25T04:17:07.984Z,13.26
2016-10-25T04:18:08.141Z,13.23
2016-10-25T04:19:07.753Z,13.22
2016-10-25T04:20:07.361Z,13.22
2016-10-25T04:21:07.931Z,13.14
2016-10-25T04:22:07.547Z,13.19
2016-10-25T04:23:08.115Z,13.14
2016-10-25T04:24:07.737Z,13.20
2016-10-25T04:25:10.095Z,13.16
2016-10-25T04:26:08.416Z,13.13
2016-10-25T04:27:08.143Z,13.22
2016-10-25T04:28:07.721Z,13.25
2016-10-25T04:29:07.219Z,13.26
2016-10-25T04:30:07.719Z,13.29
2016-10-25T04:31:07.191Z,13.29
2016-10-25T04:32:07.768Z,13.32
2016-10-25T04:33:07.281Z,13.30
2016-10-25T04:34:07.819Z,13.33
2016-10-25T04:35:07.372Z,13.26
2016-10-25T04:36:08.353Z,13.27
2016-10-25T04:37:08.882Z,13.27
2016-10-25T04:38:07.650Z,13.30
2016-10-25T04:39:07.572Z,13.32
2016-10-25T04:40:07.290Z,13.30
2016-10-25T04:41:07.979Z,13.32
2016-10-25T04:42:07.583Z,13.25
2016-10-25T04:43:08.136Z,13.26
2016-10-25T04:44:08.663Z,13.30
2016-10-25T04:45:07.314Z,13.34
2016-10-25T04:46:07.887Z,13.35
2016-10-25T04:47:07.393Z,13.32
2016-10-25T04:48:07.985Z,13.36
2016-10-25T04:49:07.751Z,13.36
2016-10-25T04:50:07.791Z,13.38
2016-10-25T04:51:07.355Z,13.39
2016-10-25T04:52:08.847Z,13.38
2016-10-25T04:53:07.556Z,13.41
2016-10-25T04:54:07.191Z,13.41
2016-10-25T04:55:08.239Z,13.40
2016-10-25T04:56:08.680Z,13.42
2016-10-25T04:57:07.290Z,13.43
2016-10-25T04:58:07.951Z,13.42
2016-10-25T04:59:07.684Z,13.39
2016-10-25T05:00:09.046Z,13.33
2016-10-25T05:01:07.693Z,13.37
2016-10-25T05:02:07.175Z,13.38
2016-10-25T05:03:07.838Z,13.37
2016-10-25T05:04:07.393Z,13.38
2016-10-25T05:05:08.047Z,13.36
2016-10-25T05:06:07.651Z,13.38
2016-10-25T05:07:07.154Z,13.38
2016-10-25T05:08:07.853Z,13.39
2016-10-25T05:09:07.471Z,13.41
2016-10-25T05:10:09.123Z,13.37
2016-10-25T05:11:07.972Z,13.38
2016-10-25T05:12:07.609Z,13.37
2016-10-25T05:13:07.589Z,13.39
2016-10-25T05:14:07.251Z,13.38
2016-10-25T05:15:07.877Z,13.33
2016-10-25T05:16:07.513Z,13.39
2016-10-25T05:17:08.256Z,13.38
2016-10-25T05:18:07.881Z,13.38
2016-10-25T05:19:07.456Z,13.41
2016-10-25T05:20:08.102Z,13.43
2016-10-25T05:21:07.351Z,13.44
2016-10-25T05:22:08.885Z,13.42
2016-10-25T05:23:07.474Z,13.41
2016-10-25T05:24:08.190Z,13.44
2016-10-25T05:25:07.900Z,13.45
2016-10-25T05:26:08.098Z,13.42
2016-10-25T05:27:07.891Z,13.40
2016-10-25T05:28:08.051Z,13.35
2016-10-25T05:29:07.641Z,13.38
2016-10-25T05:30:07.226Z,13.38
2016-10-25T05:31:07.742Z,13.35
2016-10-25T05:32:07.417Z,13.39
2016-10-25T05:33:07.977Z,13.38
2016-10-25T05:34:07.505Z,13.38
2016-10-25T05:35:08.296Z,13.39
2016-10-25T05:36:07.853Z,13.36
2016-10-25T05:37:07.326Z,13.27
2016-10-25T05:38:07.516Z,13.35
2016-10-25T05:39:08.142Z,13.35
2016-10-25T05:40:07.783Z,13.37
2016-10-25T05:41:07.633Z,13.35
2016-10-25T05:42:07.363Z,13.38
2016-10-25T05:43:08.083Z,13.42
2016-10-25T05:44:07.616Z,13.39
2016-10-25T05:45:07.185Z,13.30
2016-10-25T05:46:07.517Z,13.31
2016-10-25T05:47:08.263Z,13.35
2016-10-25T05:48:07.819Z,13.35
2016-10-25T05:49:07.506Z,13.30
2016-10-25T05:50:07.197Z,13.32
2016-10-25T05:51:07.979Z,13.33
2016-10-25T05:52:08.464Z,13.32
2016-10-25T05:53:08.469Z,13.33
2016-10-25T05:54:08.172Z,13.31
2016-10-25T05:55:07.702Z,13.33
2016-10-25T05:56:07.324Z,13.34
2016-10-25T05:57:07.820Z,13.34
2016-10-25T05:58:07.389Z,13.31
2016-10-25T05:59:07.938Z,13.31
2016-10-25T06:00:07.515Z,13.32
2016-10-25T06:01:08.206Z,13.29
2016-10-25T06:02:07.817Z,13.35
2016-10-25T06:03:07.513Z,13.38
2016-10-25T06:04:07.172Z,13.37
2016-10-25T06:05:07.685Z,13.36
2016-10-25T06:06:07.192Z,13.36
2016-10-25T06:07:07.842Z,13.37
2016-10-25T06:08:07.648Z,13.36
2016-10-25T06:09:07.265Z,13.35
2016-10-25T06:10:07.982Z,13.40
2016-10-25T06:11:07.487Z,13.39
2016-10-25T06:12:08.047Z,13.41
2016-10-25T06:13:07.701Z,13.40
2016-10-25T06:14:07.364Z,13.40
2016-10-25T06:15:07.932Z,13.34
2016-10-25T06:16:08.247Z,13.32
2016-10-25T06:17:08.042Z,13.36
2016-10-25T06:18:07.692Z,13.22
2016-10-25T06:19:07.217Z,13.30
2016-10-25T06:20:07.792Z,13.33
2016-10-25T06:21:07.420Z,13.37
2016-10-25T06:22:07.867Z,13.35
2016-10-25T06:23:07.088Z,13.39
2016-10-25T06:24:07.762Z,13.36
2016-10-25T06:25:07.335Z,13.32
2016-10-25T06:26:07.533Z,13.35
2016-10-25T06:27:09.225Z,13.36
2016-10-25T06:28:07.929Z,13.40
2016-10-25T06:29:07.569Z,13.40
2016-10-25T06:30:07.163Z,13.44
2016-10-25T06:31:07.777Z,13.38
2016-10-25T06:32:07.281Z,13.43
2016-10-25T06:33:07.881Z,13.45
2016-10-25T06:34:07.493Z,13.43
2016-10-25T06:35:08.113Z,13.41
2016-10-25T06:36:07.922Z,13.39
2016-10-25T06:37:07.590Z,13.38
2016-10-25T06:38:07.145Z,13.38
2016-10-25T06:39:07.663Z,13.39
2016-10-25T06:40:07.109Z,13.43
2016-10-25T06:41:07.701Z,13.42
2016-10-25T06:42:07.328Z,13.44
2016-10-25T06:43:07.985Z,13.42
2016-10-25T06:44:07.549Z,13.51
2016-10-25T06:45:08.132Z,13.45
2016-10-25T06:46:07.812Z,13.53
2016-10-25T06:47:07.354Z,13.49
2016-10-25T06:48:07.887Z,13.51
2016-10-25T06:49:07.372Z,13.53
2016-10-25T06:50:07.948Z,13.53
2016-10-25T06:51:07.526Z,13.58
2016-10-25T06:52:08.096Z,13.56
2016-10-25T06:53:07.759Z,13.56
2016-10-25T06:54:07.260Z,13.56
2016-10-25T06:55:07.759Z,13.58
2016-10-25T06:56:07.349Z,13.57
2016-10-25T06:57:08.368Z,13.60
2016-10-25T06:58:07.961Z,13.59
2016-10-25T06:59:07.584Z,13.66
2016-10-25T07:00:07.180Z,13.65
2016-10-25T07:01:07.778Z,13.72
2016-10-25T07:02:07.272Z,13.72
2016-10-25T07:03:07.927Z,13.77
2016-10-25T07:04:07.561Z,13.80
2016-10-25T07:05:07.077Z,13.84
2016-10-25T07:06:07.711Z,13.86
2016-10-25T07:07:07.283Z,13.88
2016-10-25T07:08:07.874Z,13.78
2016-10-25T07:09:07.527Z,13.79
2016-10-25T07:10:07.656Z,13.79
2016-10-25T07:11:07.251Z,13.79
2016-10-25T07:12:07.854Z,13.82
2016-10-25T07:13:07.382Z,13.79
2016-10-25T07:14:07.958Z,13.77
2016-10-25T07:15:07.601Z,13.81
2016-10-25T07:16:07.131Z,13.86
2016-10-25T07:17:07.893Z,13.85
2016-10-25T07:18:07.577Z,13.90
2016-10-25T07:19:07.297Z,13.90
2016-10-25T07:20:07.928Z,13.94
2016-10-25T07:21:07.437Z,13.93
2016-10-25T07:22:07.995Z,13.90
2016-10-25T07:23:07.582Z,13.90
2016-10-25T07:24:07.106Z,13.91
2016-10-25T07:25:07.650Z,13.92
2016-10-25T07:26:07.267Z,13.87
2016-10-25T07:27:08.277Z,13.93
2016-10-25T07:28:07.879Z,13.96
2016-10-25T07:29:07.477Z,13.96
2016-10-25T07:30:08.126Z,13.96
2016-10-25T07:31:07.927Z,13.98
2016-10-25T07:32:07.776Z,13.99
2016-10-25T07:33:07.307Z,14.00
2016-10-25T07:34:08.020Z,14.02
2016-10-25T07:35:07.585Z,14.03
2016-10-25T07:36:07.126Z,14.04
2016-10-25T07:37:07.656Z,14.02
2016-10-25T07:38:07.482Z,14.01
2016-10-25T07:39:07.985Z,14.00
2016-10-25T07:40:07.448Z,14.05
2016-10-25T07:41:08.072Z,14.04
2016-10-25T07:42:08.570Z,14.06
2016-10-25T07:43:07.213Z,14.04
2016-10-25T07:44:08.690Z,14.06
2016-10-25T07:45:07.373Z,14.05
2016-10-25T07:46:08.007Z,14.00
2016-10-25T07:47:07.702Z,14.06
2016-10-25T07:48:07.290Z,14.05
2016-10-25T07:49:07.941Z,14.04
2016-10-25T07:50:07.470Z,14.03
2016-10-25T07:51:07.997Z,14.06
2016-10-25T07:52:07.692Z,14.03
2016-10-25T07:53:07.315Z,14.06
2016-10-25T07:54:07.911Z,14.13
2016-10-25T07:55:07.465Z,14.07
2016-10-25T07:56:07.983Z,14.13
2016-10-25T07:57:07.536Z,14.15
2016-10-25T07:58:08.192Z,14.15
2016-10-25T07:59:07.867Z,14.13
2016-10-25T08:00:07.478Z,14.07
2016-10-25T08:01:08.103Z,14.12
2016-10-25T08:02:07.642Z,14.18
2016-10-25T08:03:07.533Z,14.18
2016-10-25T08:04:08.123Z,14.21
2016-10-25T08:05:07.708Z,14.22
2016-10-25T08:06:07.258Z,14.23
2016-10-25T08:07:07.874Z,14.19
2016-10-25T08:08:07.467Z,14.24
2016-10-25T08:09:07.983Z,14.26
2016-10-25T08:10:07.481Z,14.22
2016-10-25T08:11:08.144Z,14.25
2016-10-25T08:12:08.770Z,14.28
2016-10-25T08:13:07.315Z,14.30
2016-10-25T08:14:07.886Z,14.30
2016-10-25T08:15:07.681Z,14.32
2016-10-25T08:16:14.559Z,14.33
2016-10-25T08:17:07.410Z,14.32
2016-10-25T08:18:07.967Z,14.29
2016-10-25T08:19:07.641Z,14.35
2016-10-25T08:20:07.099Z,14.38
2016-10-25T08:21:07.711Z,14.40
2016-10-25T08:22:07.191Z,14.40
2016-10-25T08:23:07.693Z,14.39
2016-10-25T08:24:07.497Z,14.36
2016-10-25T08:25:08.065Z,14.34
2016-10-25T08:26:07.564Z,14.31
2016-10-25T08:27:07.191Z,14.31
2016-10-25T08:28:07.768Z,14.36
2016-10-25T08:29:07.997Z,14.36
2016-10-25T08:30:07.817Z,14.32
2016-10-25T08:31:07.884Z,14.39
2016-10-25T08:32:07.536Z,14.44
2016-10-25T08:33:07.407Z,14.39
2016-10-25T08:34:08.083Z,14.47
2016-10-25T08:35:07.946Z,14.48
2016-10-25T08:36:07.582Z,14.54
2016-10-25T08:37:07.150Z,14.49
2016-10-25T08:38:07.633Z,14.59
2016-10-25T08:39:07.285Z,14.69
2016-10-25T08:40:08.339Z,14.71
2016-10-25T08:41:08.076Z,14.69
2016-10-25T08:42:08.608Z,14.71
2016-10-25T08:43:07.277Z,14.78
2016-10-25T08:44:07.899Z,14.81
2016-10-25T08:45:07.429Z,14.83
2016-10-25T08:46:08.095Z,14.87
2016-10-25T08:47:07.763Z,14.87
2016-10-25T08:48:07.751Z,14.86
2016-10-25T08:49:07.441Z,14.85
2016-10-25T08:50:08.222Z,14.86
2016-10-25T08:51:07.937Z,14.88
2016-10-25T08:52:07.456Z,14.77
2016-10-25T08:53:08.062Z,14.86
2016-10-25T08:54:07.748Z,14.85
2016-10-25T08:55:07.260Z,14.68
2016-10-25T08:56:07.809Z,14.77
2016-10-25T08:57:07.335Z,14.77
2016-10-25T08:58:07.897Z,14.77
2016-10-25T08:59:07.443Z,14.78
2016-10-25T09:00:07.967Z,14.78
2016-10-25T09:01:07.550Z,14.83
2016-10-25T09:02:08.143Z,14.81
2016-10-25T09:03:07.755Z,14.82
2016-10-25T09:04:07.366Z,14.81
2016-10-25T09:05:08.469Z,14.80
2016-10-25T09:06:07.400Z,14.81
2016-10-25T09:07:08.127Z,14.80
2016-10-25T09:08:07.974Z,14.84
2016-10-25T09:09:07.578Z,14.89
2016-10-25T09:10:07.207Z,14.82
2016-10-25T09:11:07.887Z,14.88
2016-10-25T09:12:08.164Z,14.90
2016-10-25T09:13:07.487Z,14.90
2016-10-25T09:14:08.240Z,14.92
2016-10-25T09:15:07.944Z,14.95
2016-10-25T09:16:07.416Z,14.97
2016-10-25T09:17:08.161Z,14.98
2016-10-25T09:18:07.917Z,14.96
2016-10-25T09:19:07.673Z,14.89
2016-10-25T09:20:07.294Z,14.91
2016-10-25T09:21:07.966Z,14.87
2016-10-25T09:22:07.650Z,14.75
2016-10-25T09:23:07.132Z,14.72
2016-10-25T09:24:07.791Z,14.85
2016-10-25T09:25:07.414Z,14.89
2016-10-25T09:26:08.042Z,14.87
2016-10-25T09:27:07.720Z,14.94
2016-10-25T09:28:07.364Z,14.97
2016-10-25T09:29:07.422Z,14.91
2016-10-25T09:30:08.060Z,14.93
2016-10-25T09:31:55.863Z,14.63
2016-10-25T09:32:07.838Z,14.60
2016-10-25T09:33:08.047Z,14.44
2016-10-25T09:34:07.926Z,14.40
2016-10-25T09:35:07.890Z,14.31
2016-10-25T09:36:07.412Z,14.30
2016-10-25T09:37:08.121Z,14.28
2016-10-25T09:38:08.027Z,14.22
2016-10-25T09:39:07.742Z,14.23
2016-10-25T09:40:07.567Z,14.22
2016-10-25T09:41:08.176Z,14.25
2016-10-25T09:42:07.268Z,14.23
2016-10-25T09:43:07.879Z,14.24
2016-10-25T09:44:07.501Z,14.28
2016-10-25T09:45:08.233Z,14.29
2016-10-25T09:46:07.809Z,14.33
2016-10-25T09:47:07.465Z,14.33
2016-10-25T09:48:08.011Z,14.38
2016-10-25T09:49:07.687Z,14.43
2016-10-25T09:50:07.618Z,14.40
2016-10-25T09:51:07.210Z,14.41
2016-10-25T09:52:07.816Z,14.43
2016-10-25T09:53:07.228Z,14.50
2016-10-25T09:54:07.691Z,14.52
2016-10-25T09:55:07.199Z,14.54
2016-10-25T09:56:09.165Z,14.57
2016-10-25T09:57:08.115Z,14.56
2016-10-25T09:58:07.706Z,14.55
2016-10-25T09:59:07.288Z,14.58
2016-10-25T10:00:07.979Z,14.61
2016-10-25T10:01:07.533Z,14.68
2016-10-25T10:02:08.197Z,14.69
2016-10-25T10:03:07.835Z,14.69
2016-10-25T10:04:07.364Z,14.73
2016-10-25T10:05:08.075Z,14.71
2016-10-25T10:06:07.648Z,14.70
2016-10-25T10:07:07.196Z,14.73
2016-10-25T10:08:07.769Z,14.77
2016-10-25T10:09:07.290Z,14.79
2016-10-25T10:10:07.871Z,14.79
2016-10-25T10:11:07.456Z,14.83
2016-10-25T10:12:08.952Z,14.83
2016-10-25T10:13:07.590Z,14.87
2016-10-25T10:14:07.140Z,14.78
2016-10-25T10:15:07.860Z,14.81
2016-10-25T10:16:07.501Z,14.89
2016-10-25T10:17:08.532Z,14.89
2016-10-25T10:18:08.229Z,14.94
2016-10-25T10:19:08.013Z,14.94
2016-10-25T10:20:07.534Z,14.94
2016-10-25T10:21:08.181Z,14.96
2016-10-25T10:22:07.670Z,14.94
2016-10-25T10:23:07.417Z,14.94
2016-10-25T10:24:08.126Z,14.87
2016-10-25T10:25:08.062Z,14.89
2016-10-25T10:26:07.909Z,14.93
2016-10-25T10:27:07.394Z,14.94
2016-10-25T10:28:07.976Z,14.92
2016-10-25T10:29:07.742Z,14.82
2016-10-25T10:30:07.290Z,14.89
2016-10-25T10:31:07.950Z,14.89
2016-10-25T10:32:07.641Z,14.94
2016-10-25T10:33:07.215Z,14.99
2016-10-25T10:34:07.687Z,14.99
2016-10-25T10:35:07.143Z,15.06
2016-10-25T10:36:08.098Z,15.10
2016-10-25T10:37:07.556Z,15.08
2016-10-25T10:38:08.179Z,15.11
2016-10-25T10:39:07.951Z,15.15
2016-10-25T10:40:07.507Z,15.20
2016-10-25T10:41:07.459Z,15.20
2016-10-25T10:42:08.218Z,15.23
2016-10-25T10:43:07.888Z,15.17
2016-10-25T10:44:07.386Z,15.16
2016-10-25T10:45:08.010Z,15.22
2016-10-25T10:46:07.554Z,15.17
2016-10-25T10:47:08.165Z,15.23
2016-10-25T10:48:08.461Z,15.22
2016-10-25T10:49:08.135Z,15.21
2016-10-25T10:50:08.181Z,15.16
2016-10-25T10:51:07.689Z,15.14
2016-10-25T10:52:07.754Z,15.20
2016-10-25T10:53:07.259Z,15.18
2016-10-25T10:54:08.225Z,15.25
2016-10-25T10:55:07.909Z,15.26
2016-10-25T10:56:08.193Z,15.24
2016-10-25T10:57:07.937Z,15.20
2016-10-25T10:58:07.532Z,15.19
2016-10-25T10:59:08.809Z,15.12
2016-10-25T11:00:07.438Z,15.12
2016-10-25T11:01:08.112Z,15.08
2016-10-25T11:02:07.227Z,15.14
2016-10-25T11:03:07.922Z,15.16
2016-10-25T11:04:07.405Z,15.15
2016-10-25T11:05:08.505Z,15.17
2016-10-25T11:06:08.112Z,15.15
2016-10-25T11:07:07.737Z,15.17
2016-10-25T11:08:07.234Z,15.21
2016-10-25T11:09:07.690Z,15.13
2016-10-25T11:10:07.295Z,15.05
2016-10-25T11:11:07.789Z,15.07
2016-10-25T11:12:07.322Z,15.07
2016-10-25T11:13:07.946Z,15.09
2016-10-25T11:14:07.526Z,15.11
2016-10-25T11:15:08.287Z,15.19
2016-10-25T11:16:08.008Z,15.17
2016-10-25T11:17:07.768Z,15.25
2016-10-25T11:18:08.361Z,15.28
2016-10-25T11:19:07.895Z,15.29
2016-10-25T11:20:07.481Z,15.26
2016-10-25T11:21:09.972Z,15.27
2016-10-25T11:22:07.651Z,15.32
2016-10-25T11:23:07.148Z,15.24
2016-10-25T11:24:07.682Z,15.25
2016-10-25T11:25:07.354Z,15.31
2016-10-25T11:26:08.020Z,15.34
2016-10-25T11:27:08.050Z,15.39
2016-10-25T11:28:08.529Z,15.35
2016-10-25T11:29:08.834Z,15.33
2016-10-25T11:30:07.744Z,15.39
2016-10-25T11:31:07.602Z,15.38
2016-10-25T11:32:07.154Z,15.40
2016-10-25T11:33:07.863Z,15.40
2016-10-25T11:34:08.030Z,15.33
2016-10-25T11:35:07.855Z,15.39
2016-10-25T11:36:08.223Z,15.40
2016-10-25T11:37:07.616Z,15.33
2016-10-25T11:38:07.648Z,15.39
2016-10-25T11:39:07.422Z,15.45
2016-10-25T11:40:08.122Z,15.40
2016-10-25T11:41:07.883Z,15.45
2016-10-25T11:42:07.805Z,15.36
2016-10-25T11:43:07.304Z,15.37
2016-10-25T11:44:08.787Z,15.41
2016-10-25T11:45:07.412Z,15.39
2016-10-25T11:46:08.053Z,15.35
2016-10-25T11:47:10.406Z,15.33
2016-10-25T11:48:08.085Z,15.32
2016-10-25T11:49:07.836Z,15.25
2016-10-25T11:50:08.135Z,15.15
2016-10-25T11:51:07.746Z,15.15
2016-10-25T11:52:09.508Z,15.18
2016-10-25T11:53:07.387Z,15.16
2016-10-25T11:54:08.016Z,15.19
2016-10-25T11:55:07.706Z,15.27
2016-10-25T11:56:07.484Z,15.26
2016-10-25T11:57:08.216Z,15.17
2016-10-25T11:58:07.869Z,15.19
2016-10-25T11:59:07.488Z,15.22
2016-10-25T12:00:08.169Z,15.29
2016-10-25T12:01:07.759Z,15.34
2016-10-25T12:02:07.426Z,15.32
2016-10-25T12:03:08.209Z,15.20
2016-10-25T12:04:08.394Z,15.19
2016-10-25T12:05:07.176Z,15.20
2016-10-25T12:06:07.809Z,15.13
2016-10-25T12:07:07.443Z,15.17
2016-10-25T12:08:08.151Z,15.16
2016-10-25T12:09:08.041Z,15.13
2016-10-25T12:10:07.781Z,15.23
2016-10-25T12:11:07.404Z,15.28
2016-10-25T12:12:08.844Z,15.25
2016-10-25T12:13:07.820Z,15.13
2016-10-25T12:14:08.999Z,15.10
2016-10-25T12:15:08.972Z,15.09
2016-10-25T12:16:08.016Z,15.09
2016-10-25T12:17:08.747Z,15.14
2016-10-25T12:18:07.203Z,15.17
2016-10-25T12:19:08.744Z,15.17
2016-10-25T12:20:08.307Z,15.19
2016-10-25T12:21:07.934Z,15.11
2016-10-25T12:22:07.623Z,15.14
2016-10-25T12:23:07.196Z,15.17
2016-10-25T12:24:07.673Z,15.09
2016-10-25T12:25:07.116Z,15.01
2016-10-25T12:26:07.910Z,15.00
2016-10-25T12:27:07.415Z,14.89
2016-10-25T12:28:07.944Z,14.92
2016-10-25T12:29:07.457Z,14.86
2016-10-25T12:30:08.044Z,14.84
2016-10-25T12:31:07.910Z,14.92
2016-10-25T12:32:07.417Z,14.92
2016-10-25T12:33:07.920Z,14.90
2016-10-25T12:34:07.405Z,14.84
2016-10-25T12:35:07.947Z,14.84
2016-10-25T12:36:07.533Z,14.84
2016-10-25T12:37:08.074Z,14.80
2016-10-25T12:38:07.683Z,14.81
2016-10-25T12:39:07.705Z,14.86
2016-10-25T12:40:07.333Z,14.82
2016-10-25T12:41:07.922Z,14.71
2016-10-25T12:42:07.521Z,14.77
2016-10-25T12:43:08.077Z,14.70
2016-10-25T12:44:07.647Z,14.72
2016-10-25T12:45:07.212Z,14.77
2016-10-25T12:46:07.753Z,14.66
2016-10-25T12:47:07.424Z,14.74
2016-10-25T12:48:07.951Z,14.64
2016-10-25T12:49:07.506Z,14.72
2016-10-25T12:50:08.127Z,14.63
2016-10-25T12:51:07.702Z,14.68
2016-10-25T12:52:07.332Z,14.74